sensor_id;sensor_type;location;lat;lon;timestamp;P1;durP1;ratioP1;P2;durP2;ratioP2
38023;SDS011;23834;48.080;11.682;2022-08-30T00:00:52;5.50;;;5.10;;
38023;SDS011;23834;48.080;11.682;2022-08-30T00:03:27;5.63;;;5.23;;
38023;SDS011;23834;48.080;11.682;2022-08-30T00:05:52;5.30;;;4.90;;
38023;SDS011;23834;48.080;11.682;2022-08-30T00:08:18;5.40;;;5.00;;
38023;SDS011;23834;48.080;11.682;2022-08-30T00:10:43;5.30;;;4.90;;
38023;SDS011;23834;48.080;11.682;2022-08-30T00:13:09;5.27;;;4.87;;
38023;SDS011;23834;48.080;11.682;2022-08-30T00:15:37;5.17;;;4.77;;
38023;SDS011;23834;48.080;11.682;2022-08-30T00:18:03;5.53;;;5.13;;
38023;SDS011;23834;48.080;11.682;2022-08-30T00:20:30;5.67;;;5.20;;
38023;SDS011;23834;48.080;11.682;2022-08-30T00:22:55;5.17;;;4.77;;
38023;SDS011;23834;48.080;11.682;2022-08-30T00:25:21;5.23;;;4.83;;
38023;SDS011;23834;48.080;11.682;2022-08-30T00:27:46;4.97;;;4.67;;
38023;SDS011;23834;48.080;11.682;2022-08-30T00:30:13;4.53;;;4.23;;
38023;SDS011;23834;48.080;11.682;2022-08-30T00:32:38;5.47;;;5.07;;
38023;SDS011;23834;48.080;11.682;2022-08-30T00:35:04;5.40;;;5.00;;
38023;SDS011;23834;48.080;11.682;2022-08-30T00:37:30;5.33;;;4.93;;
38023;SDS011;23834;48.080;11.682;2022-08-30T00:39:56;5.23;;;4.83;;
38023;SDS011;23834;48.080;11.682;2022-08-30T00:42:21;5.30;;;4.90;;
38023;SDS011;23834;48.080;11.682;2022-08-30T00:44:46;5.70;;;5.30;;
38023;SDS011;23834;48.080;11.682;2022-08-30T00:47:12;5.23;;;4.83;;
38023;SDS011;23834;48.080;11.682;2022-08-30T00:49:38;5.70;;;5.30;;
38023;SDS011;23834;48.080;11.682;2022-08-30T00:52:03;5.30;;;4.90;;
38023;SDS011;23834;48.080;11.682;2022-08-30T00:54:29;5.00;;;4.60;;
38023;SDS011;23834;48.080;11.682;2022-08-30T00:56:55;5.27;;;4.87;;
38023;SDS011;23834;48.080;11.682;2022-08-30T00:59:20;5.40;;;5.00;;
38023;SDS011;23834;48.080;11.682;2022-08-30T01:01:48;5.03;;;4.63;;
38023;SDS011;23834;48.080;11.682;2022-08-30T01:04:14;5.10;;;4.70;;
38023;SDS011;23834;48.080;11.682;2022-08-30T01:06:40;5.37;;;4.97;;
38023;SDS011;23834;48.080;11.682;2022-08-30T01:09:05;4.70;;;4.30;;
38023;SDS011;23834;48.080;11.682;2022-08-30T01:11:32;5.63;;;5.13;;
38023;SDS011;23834;48.080;11.682;2022-08-30T01:13:58;5.43;;;5.03;;
38023;SDS011;23834;48.080;11.682;2022-08-30T01:16:24;5.43;;;5.03;;
38023;SDS011;23834;48.080;11.682;2022-08-30T01:18:50;5.50;;;5.10;;
38023;SDS011;23834;48.080;11.682;2022-08-30T01:22:00;5.03;;;4.60;;
38023;SDS011;23834;48.080;11.682;2022-08-30T01:24:05;4.63;;;4.33;;
38023;SDS011;23834;48.080;11.682;2022-08-30T01:26:31;5.33;;;4.93;;
38023;SDS011;23834;48.080;11.682;2022-08-30T01:28:58;4.80;;;4.50;;
38023;SDS011;23834;48.080;11.682;2022-08-30T01:31:25;5.50;;;5.10;;
38023;SDS011;23834;48.080;11.682;2022-08-30T01:33:50;5.50;;;5.10;;
38023;SDS011;23834;48.080;11.682;2022-08-30T01:36:16;5.50;;;5.10;;
38023;SDS011;23834;48.080;11.682;2022-08-30T01:38:46;4.70;;;4.40;;
38023;SDS011;23834;48.080;11.682;2022-08-30T01:41:13;5.60;;;5.20;;
38023;SDS011;23834;48.080;11.682;2022-08-30T01:43:39;5.53;;;5.03;;
38023;SDS011;23834;48.080;11.682;2022-08-30T01:46:04;5.43;;;4.97;;
38023;SDS011;23834;48.080;11.682;2022-08-30T01:48:29;5.53;;;5.13;;
38023;SDS011;23834;48.080;11.682;2022-08-30T01:50:55;5.53;;;5.13;;
38023;SDS011;23834;48.080;11.682;2022-08-30T01:53:20;5.00;;;4.60;;
38023;SDS011;23834;48.080;11.682;2022-08-30T01:55:45;5.57;;;5.17;;
38023;SDS011;23834;48.080;11.682;2022-08-30T01:58:11;5.80;;;5.40;;
38023;SDS011;23834;48.080;11.682;2022-08-30T02:00:36;4.77;;;4.47;;
38023;SDS011;23834;48.080;11.682;2022-08-30T02:03:02;5.17;;;4.77;;
38023;SDS011;23834;48.080;11.682;2022-08-30T02:05:28;5.70;;;5.30;;
38023;SDS011;23834;48.080;11.682;2022-08-30T02:07:53;5.40;;;5.00;;
38023;SDS011;23834;48.080;11.682;2022-08-30T02:10:18;5.10;;;4.80;;
38023;SDS011;23834;48.080;11.682;2022-08-30T02:12:44;5.00;;;4.70;;
38023;SDS011;23834;48.080;11.682;2022-08-30T02:15:09;5.60;;;5.20;;
38023;SDS011;23834;48.080;11.682;2022-08-30T02:17:35;5.50;;;5.10;;
38023;SDS011;23834;48.080;11.682;2022-08-30T02:20:00;5.00;;;4.60;;
38023;SDS011;23834;48.080;11.682;2022-08-30T02:22:26;5.10;;;4.80;;
38023;SDS011;23834;48.080;11.682;2022-08-30T02:24:51;5.00;;;4.60;;
38023;SDS011;23834;48.080;11.682;2022-08-30T02:27:16;4.93;;;4.63;;
38023;SDS011;23834;48.080;11.682;2022-08-30T02:29:42;5.20;;;4.80;;
38023;SDS011;23834;48.080;11.682;2022-08-30T02:32:07;5.20;;;4.80;;
38023;SDS011;23834;48.080;11.682;2022-08-30T02:34:32;5.10;;;4.73;;
38023;SDS011;23834;48.080;11.682;2022-08-30T02:36:57;5.30;;;4.90;;
38023;SDS011;23834;48.080;11.682;2022-08-30T02:39:23;5.50;;;5.10;;
38023;SDS011;23834;48.080;11.682;2022-08-30T02:41:48;5.33;;;4.93;;
38023;SDS011;23834;48.080;11.682;2022-08-30T02:44:14;4.70;;;4.40;;
38023;SDS011;23834;48.080;11.682;2022-08-30T02:46:39;5.43;;;4.97;;
38023;SDS011;23834;48.080;11.682;2022-08-30T02:49:05;5.13;;;4.73;;
38023;SDS011;23834;48.080;11.682;2022-08-30T02:51:32;5.10;;;4.70;;
38023;SDS011;23834;48.080;11.682;2022-08-30T02:53:58;5.40;;;5.00;;
38023;SDS011;23834;48.080;11.682;2022-08-30T02:56:23;5.17;;;4.77;;
38023;SDS011;23834;48.080;11.682;2022-08-30T02:58:48;5.67;;;5.27;;
38023;SDS011;23834;48.080;11.682;2022-08-30T03:01:14;5.10;;;4.80;;
38023;SDS011;23834;48.080;11.682;2022-08-30T03:03:40;5.13;;;4.73;;
38023;SDS011;23834;48.080;11.682;2022-08-30T03:06:05;5.00;;;4.70;;
38023;SDS011;23834;48.080;11.682;2022-08-30T03:08:31;5.20;;;4.80;;
38023;SDS011;23834;48.080;11.682;2022-08-30T03:10:56;5.23;;;4.83;;
38023;SDS011;23834;48.080;11.682;2022-08-30T03:13:22;4.80;;;4.50;;
38023;SDS011;23834;48.080;11.682;2022-08-30T03:15:48;5.23;;;4.83;;
38023;SDS011;23834;48.080;11.682;2022-08-30T03:18:14;4.90;;;4.50;;
38023;SDS011;23834;48.080;11.682;2022-08-30T03:20:40;5.57;;;5.17;;
38023;SDS011;23834;48.080;11.682;2022-08-30T03:23:05;5.40;;;5.00;;
38023;SDS011;23834;48.080;11.682;2022-08-30T03:25:30;4.97;;;4.67;;
38023;SDS011;23834;48.080;11.682;2022-08-30T03:27:55;4.87;;;4.47;;
38023;SDS011;23834;48.080;11.682;2022-08-30T03:30:21;5.60;;;5.10;;
38023;SDS011;23834;48.080;11.682;2022-08-30T03:32:46;5.50;;;4.93;;
38023;SDS011;23834;48.080;11.682;2022-08-30T03:35:11;5.57;;;5.17;;
38023;SDS011;23834;48.080;11.682;2022-08-30T03:37:37;5.20;;;4.80;;
38023;SDS011;23834;48.080;11.682;2022-08-30T03:40:03;5.40;;;4.93;;
38023;SDS011;23834;48.080;11.682;2022-08-30T03:42:29;5.70;;;5.30;;
38023;SDS011;23834;48.080;11.682;2022-08-30T03:44:54;4.60;;;4.30;;
38023;SDS011;23834;48.080;11.682;2022-08-30T03:47:19;5.10;;;4.70;;
38023;SDS011;23834;48.080;11.682;2022-08-30T03:49:44;4.87;;;4.50;;
38023;SDS011;23834;48.080;11.682;2022-08-30T03:52:10;4.70;;;4.40;;
38023;SDS011;23834;48.080;11.682;2022-08-30T03:54:35;4.83;;;4.53;;
38023;SDS011;23834;48.080;11.682;2022-08-30T03:57:00;5.63;;;5.23;;
38023;SDS011;23834;48.080;11.682;2022-08-30T03:59:25;4.90;;;4.50;;
38023;SDS011;23834;48.080;11.682;2022-08-30T04:01:50;5.20;;;4.90;;
38023;SDS011;23834;48.080;11.682;2022-08-30T04:04:16;4.57;;;4.27;;
38023;SDS011;23834;48.080;11.682;2022-08-30T04:06:41;4.93;;;4.53;;
38023;SDS011;23834;48.080;11.682;2022-08-30T04:09:07;5.30;;;4.87;;
38023;SDS011;23834;48.080;11.682;2022-08-30T04:11:33;5.00;;;4.50;;
38023;SDS011;23834;48.080;11.682;2022-08-30T04:13:58;4.80;;;4.43;;
38023;SDS011;23834;48.080;11.682;2022-08-30T04:16:23;4.90;;;4.60;;
38023;SDS011;23834;48.080;11.682;2022-08-30T04:18:49;4.90;;;4.60;;
38023;SDS011;23834;48.080;11.682;2022-08-30T04:21:14;4.70;;;4.30;;
38023;SDS011;23834;48.080;11.682;2022-08-30T04:23:40;5.30;;;4.80;;
38023;SDS011;23834;48.080;11.682;2022-08-30T04:26:05;5.30;;;4.90;;
38023;SDS011;23834;48.080;11.682;2022-08-30T04:28:30;4.73;;;4.43;;
38023;SDS011;23834;48.080;11.682;2022-08-30T04:30:56;5.17;;;4.77;;
38023;SDS011;23834;48.080;11.682;2022-08-30T04:33:21;4.70;;;4.40;;
38023;SDS011;23834;48.080;11.682;2022-08-30T04:35:47;5.03;;;4.63;;
38023;SDS011;23834;48.080;11.682;2022-08-30T04:38:13;4.97;;;4.57;;
38023;SDS011;23834;48.080;11.682;2022-08-30T04:40:41;4.90;;;4.60;;
38023;SDS011;23834;48.080;11.682;2022-08-30T04:43:07;5.13;;;4.80;;
38023;SDS011;23834;48.080;11.682;2022-08-30T04:45:32;4.80;;;4.50;;
38023;SDS011;23834;48.080;11.682;2022-08-30T04:47:58;4.47;;;4.17;;
38023;SDS011;23834;48.080;11.682;2022-08-30T04:50:23;5.10;;;4.70;;
38023;SDS011;23834;48.080;11.682;2022-08-30T04:52:48;4.70;;;4.40;;
38023;SDS011;23834;48.080;11.682;2022-08-30T04:55:14;5.20;;;4.80;;
38023;SDS011;23834;48.080;11.682;2022-08-30T04:57:40;5.17;;;4.77;;
38023;SDS011;23834;48.080;11.682;2022-08-30T05:00:06;5.10;;;4.67;;
38023;SDS011;23834;48.080;11.682;2022-08-30T05:02:32;5.00;;;4.60;;
38023;SDS011;23834;48.080;11.682;2022-08-30T05:04:57;5.37;;;5.07;;
38023;SDS011;23834;48.080;11.682;2022-08-30T05:07:41;5.23;;;4.93;;
38023;SDS011;23834;48.080;11.682;2022-08-30T05:10:06;4.90;;;4.60;;
38023;SDS011;23834;48.080;11.682;2022-08-30T05:12:32;4.80;;;4.50;;
38023;SDS011;23834;48.080;11.682;2022-08-30T05:14:57;5.10;;;4.80;;
38023;SDS011;23834;48.080;11.682;2022-08-30T05:17:22;5.30;;;5.00;;
38023;SDS011;23834;48.080;11.682;2022-08-30T05:19:47;5.13;;;4.83;;
38023;SDS011;23834;48.080;11.682;2022-08-30T05:22:13;4.93;;;4.63;;
38023;SDS011;23834;48.080;11.682;2022-08-30T05:24:38;5.20;;;4.83;;
38023;SDS011;23834;48.080;11.682;2022-08-30T05:27:03;5.37;;;4.97;;
38023;SDS011;23834;48.080;11.682;2022-08-30T05:29:29;5.60;;;5.20;;
38023;SDS011;23834;48.080;11.682;2022-08-30T05:31:54;5.50;;;5.10;;
38023;SDS011;23834;48.080;11.682;2022-08-30T05:34:19;5.20;;;4.90;;
38023;SDS011;23834;48.080;11.682;2022-08-30T05:36:45;4.80;;;4.50;;
38023;SDS011;23834;48.080;11.682;2022-08-30T05:39:10;4.83;;;4.53;;
38023;SDS011;23834;48.080;11.682;2022-08-30T05:41:35;4.90;;;4.60;;
38023;SDS011;23834;48.080;11.682;2022-08-30T05:44:01;5.40;;;5.00;;
38023;SDS011;23834;48.080;11.682;2022-08-30T05:46:27;5.30;;;4.90;;
38023;SDS011;23834;48.080;11.682;2022-08-30T05:48:57;4.90;;;4.60;;
38023;SDS011;23834;48.080;11.682;2022-08-30T05:51:23;5.70;;;5.30;;
38023;SDS011;23834;48.080;11.682;2022-08-30T05:53:49;5.27;;;4.97;;
38023;SDS011;23834;48.080;11.682;2022-08-30T05:56:16;4.77;;;4.47;;
38023;SDS011;23834;48.080;11.682;2022-08-30T05:58:42;4.60;;;4.30;;
38023;SDS011;23834;48.080;11.682;2022-08-30T06:01:17;5.07;;;4.77;;
38023;SDS011;23834;48.080;11.682;2022-08-30T06:03:42;4.53;;;4.23;;
38023;SDS011;23834;48.080;11.682;2022-08-30T06:06:07;4.90;;;4.60;;
38023;SDS011;23834;48.080;11.682;2022-08-30T06:08:32;5.20;;;4.80;;
38023;SDS011;23834;48.080;11.682;2022-08-30T06:10:57;4.83;;;4.53;;
38023;SDS011;23834;48.080;11.682;2022-08-30T06:13:23;5.63;;;5.20;;
38023;SDS011;23834;48.080;11.682;2022-08-30T06:15:48;5.50;;;5.10;;
38023;SDS011;23834;48.080;11.682;2022-08-30T06:18:15;4.93;;;4.60;;
38023;SDS011;23834;48.080;11.682;2022-08-30T06:20:41;5.10;;;4.70;;
38023;SDS011;23834;48.080;11.682;2022-08-30T06:23:06;5.60;;;5.20;;
38023;SDS011;23834;48.080;11.682;2022-08-30T06:25:33;5.43;;;5.03;;
38023;SDS011;23834;48.080;11.682;2022-08-30T06:27:59;5.10;;;4.70;;
38023;SDS011;23834;48.080;11.682;2022-08-30T06:30:24;4.33;;;4.03;;
38023;SDS011;23834;48.080;11.682;2022-08-30T06:32:49;5.03;;;4.63;;
38023;SDS011;23834;48.080;11.682;2022-08-30T06:35:14;5.00;;;4.70;;
38023;SDS011;23834;48.080;11.682;2022-08-30T06:37:40;5.10;;;4.60;;
38023;SDS011;23834;48.080;11.682;2022-08-30T06:40:07;5.03;;;4.63;;
38023;SDS011;23834;48.080;11.682;2022-08-30T06:42:32;5.03;;;4.73;;
38023;SDS011;23834;48.080;11.682;2022-08-30T06:44:58;5.20;;;4.80;;
38023;SDS011;23834;48.080;11.682;2022-08-30T06:47:24;4.90;;;4.60;;
38023;SDS011;23834;48.080;11.682;2022-08-30T06:49:49;4.97;;;4.67;;
38023;SDS011;23834;48.080;11.682;2022-08-30T06:52:14;4.67;;;4.27;;
38023;SDS011;23834;48.080;11.682;2022-08-30T06:54:39;4.80;;;4.50;;
38023;SDS011;23834;48.080;11.682;2022-08-30T06:57:05;5.10;;;4.70;;
38023;SDS011;23834;48.080;11.682;2022-08-30T06:59:30;4.73;;;4.43;;
38023;SDS011;23834;48.080;11.682;2022-08-30T07:01:56;5.40;;;5.00;;
38023;SDS011;23834;48.080;11.682;2022-08-30T07:04:22;4.17;;;3.97;;
38023;SDS011;23834;48.080;11.682;2022-08-30T07:06:47;4.77;;;4.47;;
38023;SDS011;23834;48.080;11.682;2022-08-30T07:09:12;5.10;;;4.70;;
38023;SDS011;23834;48.080;11.682;2022-08-30T07:11:38;5.20;;;4.80;;
38023;SDS011;23834;48.080;11.682;2022-08-30T07:14:05;5.00;;;4.70;;
38023;SDS011;23834;48.080;11.682;2022-08-30T07:16:31;4.60;;;4.30;;
38023;SDS011;23834;48.080;11.682;2022-08-30T07:18:57;4.53;;;4.23;;
38023;SDS011;23834;48.080;11.682;2022-08-30T07:21:26;4.70;;;4.37;;
38023;SDS011;23834;48.080;11.682;2022-08-30T07:23:52;4.53;;;4.23;;
38023;SDS011;23834;48.080;11.682;2022-08-30T07:26:21;4.70;;;4.40;;
38023;SDS011;23834;48.080;11.682;2022-08-30T07:28:47;4.93;;;4.63;;
38023;SDS011;23834;48.080;11.682;2022-08-30T07:31:13;4.97;;;4.60;;
38023;SDS011;23834;48.080;11.682;2022-08-30T07:33:38;5.10;;;4.70;;
38023;SDS011;23834;48.080;11.682;2022-08-30T07:36:04;4.80;;;4.50;;
38023;SDS011;23834;48.080;11.682;2022-08-30T07:38:30;4.60;;;4.30;;
38023;SDS011;23834;48.080;11.682;2022-08-30T07:40:55;4.93;;;4.63;;
38023;SDS011;23834;48.080;11.682;2022-08-30T07:43:23;4.37;;;4.07;;
38023;SDS011;23834;48.080;11.682;2022-08-30T07:45:48;4.50;;;4.20;;
38023;SDS011;23834;48.080;11.682;2022-08-30T07:48:13;5.10;;;4.70;;
38023;SDS011;23834;48.080;11.682;2022-08-30T07:50:44;4.60;;;4.30;;
38023;SDS011;23834;48.080;11.682;2022-08-30T07:53:09;5.07;;;4.70;;
38023;SDS011;23834;48.080;11.682;2022-08-30T07:55:35;5.20;;;4.90;;
38023;SDS011;23834;48.080;11.682;2022-08-30T07:58:00;4.87;;;4.47;;
38023;SDS011;23834;48.080;11.682;2022-08-30T08:00:25;4.87;;;4.57;;
38023;SDS011;23834;48.080;11.682;2022-08-30T08:02:51;4.53;;;4.23;;
38023;SDS011;23834;48.080;11.682;2022-08-30T08:05:16;4.40;;;4.10;;
38023;SDS011;23834;48.080;11.682;2022-08-30T08:07:41;4.30;;;4.00;;
38023;SDS011;23834;48.080;11.682;2022-08-30T08:10:07;4.23;;;3.93;;
38023;SDS011;23834;48.080;11.682;2022-08-30T08:12:33;4.10;;;3.80;;
38023;SDS011;23834;48.080;11.682;2022-08-30T08:14:58;3.90;;;3.60;;
38023;SDS011;23834;48.080;11.682;2022-08-30T08:17:23;4.23;;;3.93;;
38023;SDS011;23834;48.080;11.682;2022-08-30T08:19:48;4.00;;;3.70;;
38023;SDS011;23834;48.080;11.682;2022-08-30T08:22:14;4.07;;;3.77;;
38023;SDS011;23834;48.080;11.682;2022-08-30T08:24:39;4.13;;;3.83;;
38023;SDS011;23834;48.080;11.682;2022-08-30T08:27:04;3.83;;;3.53;;
38023;SDS011;23834;48.080;11.682;2022-08-30T08:29:29;4.17;;;3.87;;
38023;SDS011;23834;48.080;11.682;2022-08-30T08:31:54;4.77;;;4.37;;
38023;SDS011;23834;48.080;11.682;2022-08-30T08:34:21;4.53;;;4.13;;
38023;SDS011;23834;48.080;11.682;2022-08-30T08:36:49;3.80;;;3.60;;
38023;SDS011;23834;48.080;11.682;2022-08-30T08:39:14;4.43;;;4.13;;
38023;SDS011;23834;48.080;11.682;2022-08-30T08:41:57;4.10;;;3.80;;
38023;SDS011;23834;48.080;11.682;2022-08-30T08:44:42;4.20;;;3.90;;
38023;SDS011;23834;48.080;11.682;2022-08-30T08:47:12;4.27;;;3.97;;
38023;SDS011;23834;48.080;11.682;2022-08-30T08:49:44;4.27;;;3.97;;
38023;SDS011;23834;48.080;11.682;2022-08-30T08:52:16;4.17;;;3.87;;
38023;SDS011;23834;48.080;11.682;2022-08-30T08:55:03;4.20;;;3.90;;
38023;SDS011;23834;48.080;11.682;2022-08-30T08:57:32;4.40;;;4.10;;
38023;SDS011;23834;48.080;11.682;2022-08-30T08:59:58;4.30;;;4.00;;
38023;SDS011;23834;48.080;11.682;2022-08-30T09:02:29;4.00;;;3.70;;
38023;SDS011;23834;48.080;11.682;2022-08-30T09:04:59;4.00;;;3.70;;
38023;SDS011;23834;48.080;11.682;2022-08-30T09:07:26;4.37;;;4.07;;
38023;SDS011;23834;48.080;11.682;2022-08-30T09:09:52;4.57;;;4.17;;
38023;SDS011;23834;48.080;11.682;2022-08-30T09:12:17;4.20;;;3.80;;
38023;SDS011;23834;48.080;11.682;2022-08-30T09:14:43;4.10;;;3.80;;
38023;SDS011;23834;48.080;11.682;2022-08-30T09:17:11;4.67;;;3.77;;
38023;SDS011;23834;48.080;11.682;2022-08-30T09:19:41;3.80;;;3.60;;
38023;SDS011;23834;48.080;11.682;2022-08-30T09:24:45;4.40;;;4.10;;
38023;SDS011;23834;48.080;11.682;2022-08-30T09:27:30;3.97;;;3.67;;
38023;SDS011;23834;48.080;11.682;2022-08-30T09:30:07;4.00;;;3.70;;
38023;SDS011;23834;48.080;11.682;2022-08-30T09:32:40;4.37;;;3.97;;
38023;SDS011;23834;48.080;11.682;2022-08-30T09:35:08;4.20;;;3.90;;
38023;SDS011;23834;48.080;11.682;2022-08-30T09:37:44;4.30;;;4.00;;
38023;SDS011;23834;48.080;11.682;2022-08-30T09:40:11;4.67;;;4.27;;
38023;SDS011;23834;48.080;11.682;2022-08-30T09:42:36;4.30;;;4.00;;
38023;SDS011;23834;48.080;11.682;2022-08-30T09:45:03;3.90;;;3.70;;
38023;SDS011;23834;48.080;11.682;2022-08-30T09:47:39;4.70;;;4.40;;
38023;SDS011;23834;48.080;11.682;2022-08-30T09:50:08;4.20;;;3.90;;
38023;SDS011;23834;48.080;11.682;2022-08-30T09:55:22;3.47;;;3.28;;
38023;SDS011;23834;48.080;11.682;2022-08-30T09:57:47;3.90;;;3.60;;
38023;SDS011;23834;48.080;11.682;2022-08-30T10:00:17;3.83;;;3.57;;
38023;SDS011;23834;48.080;11.682;2022-08-30T10:05:50;3.37;;;3.13;;
38023;SDS011;23834;48.080;11.682;2022-08-30T10:10:55;4.50;;;4.20;;
38023;SDS011;23834;48.080;11.682;2022-08-30T10:13:46;4.60;;;4.23;;
38023;SDS011;23834;48.080;11.682;2022-08-30T10:23:57;4.57;;;4.27;;
38023;SDS011;23834;48.080;11.682;2022-08-30T10:28:53;4.80;;;4.40;;
38023;SDS011;23834;48.080;11.682;2022-08-30T10:31:24;4.10;;;3.80;;
38023;SDS011;23834;48.080;11.682;2022-08-30T10:33:52;4.53;;;4.23;;
38023;SDS011;23834;48.080;11.682;2022-08-30T10:36:20;3.40;;;3.20;;
38023;SDS011;23834;48.080;11.682;2022-08-30T10:38:49;4.17;;;3.87;;
38023;SDS011;23834;48.080;11.682;2022-08-30T10:41:35;5.03;;;3.70;;
38023;SDS011;23834;48.080;11.682;2022-08-30T10:44:02;4.70;;;4.30;;
38023;SDS011;23834;48.080;11.682;2022-08-30T10:49:24;3.90;;;3.67;;
38023;SDS011;23834;48.080;11.682;2022-08-30T10:57:06;4.00;;;3.70;;
38023;SDS011;23834;48.080;11.682;2022-08-30T10:59:32;4.00;;;3.77;;
38023;SDS011;23834;48.080;11.682;2022-08-30T11:12:33;4.40;;;4.10;;
38023;SDS011;23834;48.080;11.682;2022-08-30T11:15:09;3.90;;;3.60;;
38023;SDS011;23834;48.080;11.682;2022-08-30T11:17:39;4.67;;;4.37;;
38023;SDS011;23834;48.080;11.682;2022-08-30T11:20:05;4.63;;;4.33;;
38023;SDS011;23834;48.080;11.682;2022-08-30T11:23:05;3.80;;;3.50;;
38023;SDS011;23834;48.080;11.682;2022-08-30T11:31:06;4.43;;;4.13;;
38023;SDS011;23834;48.080;11.682;2022-08-30T11:41:11;3.90;;;3.60;;
38023;SDS011;23834;48.080;11.682;2022-08-30T11:48:41;4.07;;;3.73;;
38023;SDS011;23834;48.080;11.682;2022-08-30T11:53:51;3.80;;;3.50;;
38023;SDS011;23834;48.080;11.682;2022-08-30T11:56:20;4.93;;;4.63;;
38023;SDS011;23834;48.080;11.682;2022-08-30T11:58:52;4.17;;;3.90;;
38023;SDS011;23834;48.080;11.682;2022-08-30T12:04:08;4.70;;;4.30;;
38023;SDS011;23834;48.080;11.682;2022-08-30T12:09:04;3.77;;;3.57;;
38023;SDS011;23834;48.080;11.682;2022-08-30T12:13:58;4.20;;;3.90;;
38023;SDS011;23834;48.080;11.682;2022-08-30T12:39:33;4.13;;;3.83;;
38023;SDS011;23834;48.080;11.682;2022-08-30T12:49:44;4.67;;;4.27;;
38023;SDS011;23834;48.080;11.682;2022-08-30T12:52:16;4.53;;;4.23;;
38023;SDS011;23834;48.080;11.682;2022-08-30T12:54:44;4.00;;;3.73;;
38023;SDS011;23834;48.080;11.682;2022-08-30T12:57:09;4.40;;;4.10;;
38023;SDS011;23834;48.080;11.682;2022-08-30T13:02:13;3.90;;;3.60;;
38023;SDS011;23834;48.080;11.682;2022-08-30T13:22:59;4.10;;;3.80;;
38023;SDS011;23834;48.080;11.682;2022-08-30T13:25:25;4.73;;;4.33;;
38023;SDS011;23834;48.080;11.682;2022-08-30T13:27:51;4.30;;;4.00;;
38023;SDS011;23834;48.080;11.682;2022-08-30T13:30:16;4.57;;;4.17;;
38023;SDS011;23834;48.080;11.682;2022-08-30T13:32:41;4.10;;;3.80;;
38023;SDS011;23834;48.080;11.682;2022-08-30T13:35:07;4.13;;;3.83;;
38023;SDS011;23834;48.080;11.682;2022-08-30T13:37:33;4.47;;;4.17;;
38023;SDS011;23834;48.080;11.682;2022-08-30T13:39:59;4.40;;;4.10;;
38023;SDS011;23834;48.080;11.682;2022-08-30T13:42:25;4.00;;;3.70;;
38023;SDS011;23834;48.080;11.682;2022-08-30T13:44:50;4.03;;;3.73;;
38023;SDS011;23834;48.080;11.682;2022-08-30T13:47:15;4.47;;;4.17;;
38023;SDS011;23834;48.080;11.682;2022-08-30T13:49:41;4.30;;;3.97;;
38023;SDS011;23834;48.080;11.682;2022-08-30T13:52:08;4.70;;;4.30;;
38023;SDS011;23834;48.080;11.682;2022-08-30T13:54:35;4.57;;;4.23;;
38023;SDS011;23834;48.080;11.682;2022-08-30T13:57:00;4.67;;;4.30;;
38023;SDS011;23834;48.080;11.682;2022-08-30T13:59:25;4.47;;;4.17;;
38023;SDS011;23834;48.080;11.682;2022-08-30T14:01:53;4.73;;;4.33;;
38023;SDS011;23834;48.080;11.682;2022-08-30T14:04:20;4.20;;;3.90;;
38023;SDS011;23834;48.080;11.682;2022-08-30T14:06:45;4.33;;;4.00;;
38023;SDS011;23834;48.080;11.682;2022-08-30T14:09:10;4.40;;;4.10;;
38023;SDS011;23834;48.080;11.682;2022-08-30T14:11:38;5.00;;;4.60;;
38023;SDS011;23834;48.080;11.682;2022-08-30T14:14:03;4.10;;;3.80;;
38023;SDS011;23834;48.080;11.682;2022-08-30T14:16:28;4.90;;;4.50;;
38023;SDS011;23834;48.080;11.682;2022-08-30T14:18:55;5.00;;;4.60;;
38023;SDS011;23834;48.080;11.682;2022-08-30T14:21:21;4.40;;;3.97;;
38023;SDS011;23834;48.080;11.682;2022-08-30T14:23:46;4.60;;;4.30;;
38023;SDS011;23834;48.080;11.682;2022-08-30T14:26:13;4.63;;;4.33;;
38023;SDS011;23834;48.080;11.682;2022-08-30T14:28:39;4.17;;;3.87;;
38023;SDS011;23834;48.080;11.682;2022-08-30T14:31:05;4.20;;;3.90;;
38023;SDS011;23834;48.080;11.682;2022-08-30T14:33:31;4.33;;;4.03;;
38023;SDS011;23834;48.080;11.682;2022-08-30T14:35:56;4.40;;;4.10;;
38023;SDS011;23834;48.080;11.682;2022-08-30T14:38:21;4.00;;;3.77;;
38023;SDS011;23834;48.080;11.682;2022-08-30T14:40:46;4.60;;;4.30;;
38023;SDS011;23834;48.080;11.682;2022-08-30T14:43:11;4.93;;;4.53;;
38023;SDS011;23834;48.080;11.682;2022-08-30T14:45:37;5.30;;;4.90;;
38023;SDS011;23834;48.080;11.682;2022-08-30T14:48:03;4.60;;;4.30;;
38023;SDS011;23834;48.080;11.682;2022-08-30T14:50:33;4.77;;;4.40;;
38023;SDS011;23834;48.080;11.682;2022-08-30T14:52:58;4.67;;;4.37;;
38023;SDS011;23834;48.080;11.682;2022-08-30T14:55:23;4.67;;;4.37;;
38023;SDS011;23834;48.080;11.682;2022-08-30T14:57:52;4.50;;;4.20;;
38023;SDS011;23834;48.080;11.682;2022-08-30T15:00:17;4.30;;;4.00;;
38023;SDS011;23834;48.080;11.682;2022-08-30T15:02:43;4.63;;;4.23;;
38023;SDS011;23834;48.080;11.682;2022-08-30T15:05:08;4.90;;;4.50;;
38023;SDS011;23834;48.080;11.682;2022-08-30T15:07:33;4.57;;;4.27;;
38023;SDS011;23834;48.080;11.682;2022-08-30T15:09:58;4.57;;;4.27;;
38023;SDS011;23834;48.080;11.682;2022-08-30T15:12:23;5.67;;;5.07;;
38023;SDS011;23834;48.080;11.682;2022-08-30T15:14:49;4.63;;;4.20;;
38023;SDS011;23834;48.080;11.682;2022-08-30T15:17:14;4.37;;;4.07;;
38023;SDS011;23834;48.080;11.682;2022-08-30T15:19:41;4.63;;;4.33;;
38023;SDS011;23834;48.080;11.682;2022-08-30T15:22:07;4.53;;;4.13;;
38023;SDS011;23834;48.080;11.682;2022-08-30T15:24:33;3.93;;;3.63;;
38023;SDS011;23834;48.080;11.682;2022-08-30T15:26:58;4.77;;;4.33;;
38023;SDS011;23834;48.080;11.682;2022-08-30T15:29:24;4.47;;;4.10;;
38023;SDS011;23834;48.080;11.682;2022-08-30T15:31:49;4.50;;;4.20;;
38023;SDS011;23834;48.080;11.682;2022-08-30T15:34:16;4.53;;;4.23;;
38023;SDS011;23834;48.080;11.682;2022-08-30T15:36:42;4.73;;;4.33;;
38023;SDS011;23834;48.080;11.682;2022-08-30T15:39:08;5.00;;;4.50;;
38023;SDS011;23834;48.080;11.682;2022-08-30T15:41:33;4.00;;;3.80;;
38023;SDS011;23834;48.080;11.682;2022-08-30T15:43:59;4.73;;;4.33;;
38023;SDS011;23834;48.080;11.682;2022-08-30T15:46:29;4.40;;;4.00;;
38023;SDS011;23834;48.080;11.682;2022-08-30T15:48:59;4.40;;;4.10;;
38023;SDS011;23834;48.080;11.682;2022-08-30T15:51:25;5.20;;;4.80;;
38023;SDS011;23834;48.080;11.682;2022-08-30T15:53:50;5.10;;;4.70;;
38023;SDS011;23834;48.080;11.682;2022-08-30T15:56:16;4.97;;;4.57;;
38023;SDS011;23834;48.080;11.682;2022-08-30T15:58:42;4.50;;;4.20;;
38023;SDS011;23834;48.080;11.682;2022-08-30T16:01:07;4.57;;;4.23;;
38023;SDS011;23834;48.080;11.682;2022-08-30T16:03:33;4.50;;;4.13;;
38023;SDS011;23834;48.080;11.682;2022-08-30T16:05:58;4.67;;;4.37;;
38023;SDS011;23834;48.080;11.682;2022-08-30T16:08:24;4.93;;;4.53;;
38023;SDS011;23834;48.080;11.682;2022-08-30T16:10:49;4.73;;;4.43;;
38023;SDS011;23834;48.080;11.682;2022-08-30T16:13:15;4.17;;;3.87;;
38023;SDS011;23834;48.080;11.682;2022-08-30T16:15:40;4.90;;;4.50;;
38023;SDS011;23834;48.080;11.682;2022-08-30T16:18:07;4.43;;;4.13;;
38023;SDS011;23834;48.080;11.682;2022-08-30T16:20:32;4.40;;;4.10;;
38023;SDS011;23834;48.080;11.682;2022-08-30T16:22:58;4.20;;;3.90;;
38023;SDS011;23834;48.080;11.682;2022-08-30T16:25:23;4.90;;;4.50;;
38023;SDS011;23834;48.080;11.682;2022-08-30T16:27:48;4.77;;;4.43;;
38023;SDS011;23834;48.080;11.682;2022-08-30T16:30:13;4.23;;;3.93;;